sensor_id;sensor_type;location;lat;lon;timestamp;temperature;humidity
20457;DHT22;10387;51.102;6.848;2023-02-21T00:00:26;7.90;99.90
20457;DHT22;10387;51.102;6.848;2023-02-21T00:03:19;7.90;99.90
20457;DHT22;10387;51.102;6.848;2023-02-21T00:06:07;7.90;99.90
20457;DHT22;10387;51.102;6.848;2023-02-21T00:08:52;7.80;99.90
20457;DHT22;10387;51.102;6.848;2023-02-21T00:11:40;7.80;99.90
20457;DHT22;10387;51.102;6.848;2023-02-21T00:14:25;7.90;99.90
20457;DHT22;10387;51.102;6.848;2023-02-21T00:17:10;7.90;99.90
20457;DHT22;10387;51.102;6.848;2023-02-21T00:19:54;7.90;99.90
20457;DHT22;10387;51.102;6.848;2023-02-21T00:22:38;7.90;99.90
20457;DHT22;10387;51.102;6.848;2023-02-21T00:25:22;7.90;99.90
20457;DHT22;10387;51.102;6.848;2023-02-21T00:28:07;7.90;99.90
20457;DHT22;10387;51.102;6.848;2023-02-21T00:30:51;7.90;99.90
20457;DHT22;10387;51.102;6.848;2023-02-21T00:33:36;7.80;99.90
20457;DHT22;10387;51.102;6.848;2023-02-21T00:36:20;7.80;99.90
20457;DHT22;10387;51.102;6.848;2023-02-21T00:39:05;7.80;99.90
20457;DHT22;10387;51.102;6.848;2023-02-21T00:41:49;7.80;99.90
20457;DHT22;10387;51.102;6.848;2023-02-21T00:44:33;7.80;99.90
20457;DHT22;10387;51.102;6.848;2023-02-21T00:47:17;7.80;99.90
20457;DHT22;10387;51.102;6.848;2023-02-21T00:50:02;7.80;99.90
20457;DHT22;10387;51.102;6.848;2023-02-21T00:52:46;7.80;99.90
20457;DHT22;10387;51.102;6.848;2023-02-21T00:55:31;7.80;99.90
20457;DHT22;10387;51.102;6.848;2023-02-21T00:58:15;7.80;99.90
20457;DHT22;10387;51.102;6.848;2023-02-21T01:00:59;7.80;99.90
20457;DHT22;10387;51.102;6.848;2023-02-21T01:03:43;7.80;99.90
20457;DHT22;10387;51.102;6.848;2023-02-21T01:06:27;7.80;99.90
20457;DHT22;10387;51.102;6.848;2023-02-21T01:09:12;7.80;99.90
20457;DHT22;10387;51.102;6.848;2023-02-21T01:11:57;7.80;99.90
20457;DHT22;10387;51.102;6.848;2023-02-21T01:14:41;7.80;99.90
20457;DHT22;10387;51.102;6.848;2023-02-21T01:17:26;7.80;99.90
20457;DHT22;10387;51.102;6.848;2023-02-21T01:20:10;7.70;99.90
20457;DHT22;10387;51.102;6.848;2023-02-21T01:22:54;7.70;99.90
20457;DHT22;10387;51.102;6.848;2023-02-21T01:25:40;7.70;99.90
20457;DHT22;10387;51.102;6.848;2023-02-21T01:28:27;7.80;99.90
20457;DHT22;10387;51.102;6.848;2023-02-21T01:31:17;7.70;99.90
20457;DHT22;10387;51.102;6.848;2023-02-21T01:34:01;7.70;99.90
20457;DHT22;10387;51.102;6.848;2023-02-21T01:36:46;7.70;99.90
20457;DHT22;10387;51.102;6.848;2023-02-21T01:39:30;7.70;99.90
20457;DHT22;10387;51.102;6.848;2023-02-21T01:42:14;7.70;99.90
20457;DHT22;10387;51.102;6.848;2023-02-21T01:48:02;7.70;99.90
20457;DHT22;10387;51.102;6.848;2023-02-21T01:50:46;7.70;99.90
20457;DHT22;10387;51.102;6.848;2023-02-21T01:53:30;7.70;99.90
20457;DHT22;10387;51.102;6.848;2023-02-21T01:56:15;7.80;99.90
20457;DHT22;10387;51.102;6.848;2023-02-21T01:59:01;7.70;99.90
20457;DHT22;10387;51.102;6.848;2023-02-21T02:01:58;7.80;99.90
20457;DHT22;10387;51.102;6.848;2023-02-21T02:04:44;7.80;99.90
20457;DHT22;10387;51.102;6.848;2023-02-21T02:07:30;7.70;99.90
20457;DHT22;10387;51.102;6.848;2023-02-21T02:10:15;7.70;99.90
20457;DHT22;10387;51.102;6.848;2023-02-21T02:15:37;7.80;99.90
20457;DHT22;10387;51.102;6.848;2023-02-21T02:18:30;7.70;99.90
20457;DHT22;10387;51.102;6.848;2023-02-21T02:23:59;7.80;99.90
20457;DHT22;10387;51.102;6.848;2023-02-21T02:26:53;7.80;99.90
20457;DHT22;10387;51.102;6.848;2023-02-21T02:29:36;7.80;99.90
20457;DHT22;10387;51.102;6.848;2023-02-21T02:37:29;7.80;99.90
20457;DHT22;10387;51.102;6.848;2023-02-21T02:42:54;7.80;99.90
20457;DHT22;10387;51.102;6.848;2023-02-21T02:48:30;7.80;99.90
20457;DHT22;10387;51.102;6.848;2023-02-21T02:50:59;7.80;99.90
20457;DHT22;10387;51.102;6.848;2023-02-21T02:53:29;7.80;99.90
20457;DHT22;10387;51.102;6.848;2023-02-21T02:55:59;7.80;99.90
20457;DHT22;10387;51.102;6.848;2023-02-21T02:58:29;7.80;99.90
20457;DHT22;10387;51.102;6.848;2023-02-21T03:03:41;7.90;99.90
20457;DHT22;10387;51.102;6.848;2023-02-21T03:06:17;7.90;99.90
20457;DHT22;10387;51.102;6.848;2023-02-21T03:11:19;7.90;99.90
20457;DHT22;10387;51.102;6.848;2023-02-21T03:16:33;7.90;99.90
20457;DHT22;10387;51.102;6.848;2023-02-21T03:19:12;7.90;99.90
20457;DHT22;10387;51.102;6.848;2023-02-21T03:21:47;7.90;99.90
20457;DHT22;10387;51.102;6.848;2023-02-21T03:24:16;7.80;99.90
20457;DHT22;10387;51.102;6.848;2023-02-21T03:26:45;7.90;99.90
20457;DHT22;10387;51.102;6.848;2023-02-21T03:29:33;7.80;99.90
20457;DHT22;10387;51.102;6.848;2023-02-21T03:32:17;7.80;99.90
20457;DHT22;10387;51.102;6.848;2023-02-21T03:34:45;7.90;99.90
20457;DHT22;10387;51.102;6.848;2023-02-21T03:37:30;7.80;99.90
20457;DHT22;10387;51.102;6.848;2023-02-21T03:39:56;7.90;99.90
20457;DHT22;10387;51.102;6.848;2023-02-21T03:42:23;7.90;99.90
20457;DHT22;10387;51.102;6.848;2023-02-21T03:44:48;7.80;99.90
20457;DHT22;10387;51.102;6.848;2023-02-21T03:47:15;7.90;99.90
20457;DHT22;10387;51.102;6.848;2023-02-21T03:49:40;7.90;99.90
20457;DHT22;10387;51.102;6.848;2023-02-21T03:52:06;7.90;99.90
20457;DHT22;10387;51.102;6.848;2023-02-21T03:54:40;7.90;99.90
20457;DHT22;10387;51.102;6.848;2023-02-21T03:57:09;7.90;99.90
20457;DHT22;10387;51.102;6.848;2023-02-21T03:59:40;7.90;99.90
20457;DHT22;10387;51.102;6.848;2023-02-21T04:02:06;7.90;99.90
20457;DHT22;10387;51.102;6.848;2023-02-21T04:04:33;7.90;99.90
20457;DHT22;10387;51.102;6.848;2023-02-21T04:07:05;7.90;99.90
20457;DHT22;10387;51.102;6.848;2023-02-21T04:09:32;7.90;99.90
20457;DHT22;10387;51.102;6.848;2023-02-21T04:11:59;7.90;99.90
20457;DHT22;10387;51.102;6.848;2023-02-21T04:14:25;7.90;99.90
20457;DHT22;10387;51.102;6.848;2023-02-21T04:16:54;7.90;99.90
20457;DHT22;10387;51.102;6.848;2023-02-21T04:19:24;8.00;99.90
20457;DHT22;10387;51.102;6.848;2023-02-21T04:21:56;8.00;99.90
20457;DHT22;10387;51.102;6.848;2023-02-21T04:24:21;8.00;99.90
20457;DHT22;10387;51.102;6.848;2023-02-21T04:26:47;8.00;99.90
20457;DHT22;10387;51.102;6.848;2023-02-21T04:29:13;7.90;99.90
20457;DHT22;10387;51.102;6.848;2023-02-21T04:31:39;7.90;99.90
20457;DHT22;10387;51.102;6.848;2023-02-21T04:34:10;8.00;99.90
20457;DHT22;10387;51.102;6.848;2023-02-21T04:36:36;8.00;99.90
20457;DHT22;10387;51.102;6.848;2023-02-21T04:39:05;8.00;99.90
20457;DHT22;10387;51.102;6.848;2023-02-21T04:41:31;8.00;99.90
20457;DHT22;10387;51.102;6.848;2023-02-21T04:43:58;7.90;99.90
20457;DHT22;10387;51.102;6.848;2023-02-21T04:46:24;8.00;99.90
20457;DHT22;10387;51.102;6.848;2023-02-21T04:48:51;7.90;99.90
20457;DHT22;10387;51.102;6.848;2023-02-21T04:51:19;8.00;99.90
20457;DHT22;10387;51.102;6.848;2023-02-21T04:53:47;8.00;99.90
20457;DHT22;10387;51.102;6.848;2023-02-21T04:56:14;7.90;99.90
20457;DHT22;10387;51.102;6.848;2023-02-21T04:58:40;7.90;99.90
20457;DHT22;10387;51.102;6.848;2023-02-21T05:01:06;7.80;99.90
20457;DHT22;10387;51.102;6.848;2023-02-21T05:03:32;7.80;99.90
20457;DHT22;10387;51.102;6.848;2023-02-21T05:05:58;7.80;99.90
20457;DHT22;10387;51.102;6.848;2023-02-21T05:08:23;7.80;99.90
20457;DHT22;10387;51.102;6.848;2023-02-21T05:10:49;7.80;99.90
20457;DHT22;10387;51.102;6.848;2023-02-21T05:13:15;7.80;99.90
20457;DHT22;10387;51.102;6.848;2023-02-21T05:15:41;7.80;99.90
20457;DHT22;10387;51.102;6.848;2023-02-21T05:18:07;7.80;99.90
20457;DHT22;10387;51.102;6.848;2023-02-21T05:20:32;7.80;99.90
20457;DHT22;10387;51.102;6.848;2023-02-21T05:22:58;7.80;99.90
20457;DHT22;10387;51.102;6.848;2023-02-21T05:25:24;7.80;99.90
20457;DHT22;10387;51.102;6.848;2023-02-21T05:27:51;7.70;99.90
20457;DHT22;10387;51.102;6.848;2023-02-21T05:30:20;7.80;99.90
20457;DHT22;10387;51.102;6.848;2023-02-21T05:32:46;7.80;99.90
20457;DHT22;10387;51.102;6.848;2023-02-21T05:35:13;7.70;99.90
20457;DHT22;10387;51.102;6.848;2023-02-21T05:37:39;7.70;99.90
20457;DHT22;10387;51.102;6.848;2023-02-21T05:40:05;7.70;99.90
20457;DHT22;10387;51.102;6.848;2023-02-21T05:42:31;7.70;99.90
20457;DHT22;10387;51.102;6.848;2023-02-21T05:44:57;7.70;99.90
20457;DHT22;10387;51.102;6.848;2023-02-21T05:47:23;7.60;99.90
20457;DHT22;10387;51.102;6.848;2023-02-21T05:49:49;7.60;99.90
20457;DHT22;10387;51.102;6.848;2023-02-21T05:52:15;7.60;99.90
20457;DHT22;10387;51.102;6.848;2023-02-21T05:54:42;7.60;99.90
20457;DHT22;10387;51.102;6.848;2023-02-21T05:57:08;7.60;99.90
20457;DHT22;10387;51.102;6.848;2023-02-21T05:59:33;7.70;99.90
20457;DHT22;10387;51.102;6.848;2023-02-21T06:01:59;7.60;99.90
20457;DHT22;10387;51.102;6.848;2023-02-21T06:04:24;7.70;99.90
20457;DHT22;10387;51.102;6.848;2023-02-21T06:06:50;7.60;99.90
20457;DHT22;10387;51.102;6.848;2023-02-21T06:09:19;7.60;99.90
20457;DHT22;10387;51.102;6.848;2023-02-21T06:11:45;7.60;99.90
20457;DHT22;10387;51.102;6.848;2023-02-21T06:14:15;7.60;99.90
20457;DHT22;10387;51.102;6.848;2023-02-21T06:16:41;7.50;99.90
20457;DHT22;10387;51.102;6.848;2023-02-21T06:19:08;7.50;99.90
20457;DHT22;10387;51.102;6.848;2023-02-21T06:21:34;7.50;99.90
20457;DHT22;10387;51.102;6.848;2023-02-21T06:24:03;7.40;99.90
20457;DHT22;10387;51.102;6.848;2023-02-21T06:26:29;7.40;99.90
20457;DHT22;10387;51.102;6.848;2023-02-21T06:28:55;7.40;99.90
20457;DHT22;10387;51.102;6.848;2023-02-21T06:31:21;7.40;99.90
20457;DHT22;10387;51.102;6.848;2023-02-21T06:33:48;7.40;99.90
20457;DHT22;10387;51.102;6.848;2023-02-21T06:36:17;7.30;99.90
20457;DHT22;10387;51.102;6.848;2023-02-21T06:38:44;7.30;99.90
20457;DHT22;10387;51.102;6.848;2023-02-21T06:41:10;7.30;99.90
20457;DHT22;10387;51.102;6.848;2023-02-21T06:43:36;7.30;99.90
20457;DHT22;10387;51.102;6.848;2023-02-21T06:46:02;7.30;99.90
20457;DHT22;10387;51.102;6.848;2023-02-21T06:48:29;7.30;99.90
20457;DHT22;10387;51.102;6.848;2023-02-21T06:50:55;7.30;99.90
20457;DHT22;10387;51.102;6.848;2023-02-21T06:53:20;7.30;99.90
20457;DHT22;10387;51.102;6.848;2023-02-21T06:55:46;7.40;99.90
20457;DHT22;10387;51.102;6.848;2023-02-21T06:58:12;7.30;99.90
20457;DHT22;10387;51.102;6.848;2023-02-21T07:00:38;7.30;99.90
20457;DHT22;10387;51.102;6.848;2023-02-21T07:03:04;7.30;99.90
20457;DHT22;10387;51.102;6.848;2023-02-21T07:05:30;7.30;99.90
20457;DHT22;10387;51.102;6.848;2023-02-21T07:08:00;7.30;99.90
20457;DHT22;10387;51.102;6.848;2023-02-21T07:10:26;7.40;99.90
20457;DHT22;10387;51.102;6.848;2023-02-21T07:12:52;7.40;99.90
20457;DHT22;10387;51.102;6.848;2023-02-21T07:15:18;7.40;99.90
20457;DHT22;10387;51.102;6.848;2023-02-21T07:17:44;7.40;99.90
20457;DHT22;10387;51.102;6.848;2023-02-21T07:20:10;7.40;99.90
20457;DHT22;10387;51.102;6.848;2023-02-21T07:22:35;7.40;99.90
20457;DHT22;10387;51.102;6.848;2023-02-21T07:25:01;7.50;99.90
20457;DHT22;10387;51.102;6.848;2023-02-21T07:27:27;7.40;99.90
20457;DHT22;10387;51.102;6.848;2023-02-21T07:29:54;7.40;99.90
20457;DHT22;10387;51.102;6.848;2023-02-21T07:32:19;7.40;99.90
20457;DHT22;10387;51.102;6.848;2023-02-21T07:34:47;7.40;99.90
20457;DHT22;10387;51.102;6.848;2023-02-21T07:37:13;7.40;99.90
20457;DHT22;10387;51.102;6.848;2023-02-21T07:39:39;7.40;99.90
20457;DHT22;10387;51.102;6.848;2023-02-21T07:42:05;7.40;99.90
20457;DHT22;10387;51.102;6.848;2023-02-21T07:44:33;7.40;99.90
20457;DHT22;10387;51.102;6.848;2023-02-21T07:46:58;7.30;99.90
20457;DHT22;10387;51.102;6.848;2023-02-21T07:49:24;7.30;99.90
20457;DHT22;10387;51.102;6.848;2023-02-21T07:51:50;7.30;99.90
20457;DHT22;10387;51.102;6.848;2023-02-21T07:54:16;7.30;99.90
20457;DHT22;10387;51.102;6.848;2023-02-21T07:56:47;7.30;99.90
20457;DHT22;10387;51.102;6.848;2023-02-21T07:59:13;7.30;99.90
20457;DHT22;10387;51.102;6.848;2023-02-21T08:01:39;7.30;99.90
20457;DHT22;10387;51.102;6.848;2023-02-21T08:04:06;7.30;99.90
20457;DHT22;10387;51.102;6.848;2023-02-21T08:06:33;7.30;99.90
20457;DHT22;10387;51.102;6.848;2023-02-21T08:08:59;7.30;99.90
20457;DHT22;10387;51.102;6.848;2023-02-21T08:11:25;7.30;99.90
20457;DHT22;10387;51.102;6.848;2023-02-21T08:13:50;7.40;99.90
20457;DHT22;10387;51.102;6.848;2023-02-21T08:16:16;7.40;99.90
20457;DHT22;10387;51.102;6.848;2023-02-21T08:18:42;7.40;99.90
20457;DHT22;10387;51.102;6.848;2023-02-21T08:21:09;7.40;99.90
20457;DHT22;10387;51.102;6.848;2023-02-21T08:23:35;7.40;99.90
20457;DHT22;10387;51.102;6.848;2023-02-21T08:26:05;7.50;99.90
20457;DHT22;10387;51.102;6.848;2023-02-21T08:28:30;7.50;99.90
20457;DHT22;10387;51.102;6.848;2023-02-21T08:31:01;7.50;99.90
20457;DHT22;10387;51.102;6.848;2023-02-21T08:33:27;7.40;99.90
20457;DHT22;10387;51.102;6.848;2023-02-21T08:35:53;7.40;99.90
20457;DHT22;10387;51.102;6.848;2023-02-21T08:38:19;7.40;99.90
20457;DHT22;10387;51.102;6.848;2023-02-21T08:40:45;7.40;99.90
20457;DHT22;10387;51.102;6.848;2023-02-21T08:43:11;7.40;99.90
20457;DHT22;10387;51.102;6.848;2023-02-21T08:45:36;7.40;99.90
20457;DHT22;10387;51.102;6.848;2023-02-21T08:48:03;7.40;99.90
20457;DHT22;10387;51.102;6.848;2023-02-21T08:50:28;7.40;99.90
20457;DHT22;10387;51.102;6.848;2023-02-21T08:52:54;7.40;99.90
20457;DHT22;10387;51.102;6.848;2023-02-21T08:55:21;7.40;99.90
20457;DHT22;10387;51.102;6.848;2023-02-21T08:57:50;7.40;99.90
20457;DHT22;10387;51.102;6.848;2023-02-21T09:00:17;7.40;99.90
20457;DHT22;10387;51.102;6.848;2023-02-21T09:02:43;7.40;99.90
20457;DHT22;10387;51.102;6.848;2023-02-21T09:05:16;7.40;99.90
20457;DHT22;10387;51.102;6.848;2023-02-21T09:07:43;7.40;99.90
20457;DHT22;10387;51.102;6.848;2023-02-21T09:10:10;7.40;99.90
20457;DHT22;10387;51.102;6.848;2023-02-21T09:12:37;7.50;99.90
20457;DHT22;10387;51.102;6.848;2023-02-21T09:15:04;7.40;99.90
20457;DHT22;10387;51.102;6.848;2023-02-21T09:17:30;7.40;99.90
20457;DHT22;10387;51.102;6.848;2023-02-21T09:20:00;7.40;99.90
20457;DHT22;10387;51.102;6.848;2023-02-21T09:22:26;7.40;99.90
20457;DHT22;10387;51.102;6.848;2023-02-21T09:24:52;7.50;99.90
20457;DHT22;10387;51.102;6.848;2023-02-21T09:27:18;7.50;99.90
20457;DHT22;10387;51.102;6.848;2023-02-21T09:29:44;7.50;99.90
20457;DHT22;10387;51.102;6.848;2023-02-21T09:32:12;7.50;99.90
20457;DHT22;10387;51.102;6.848;2023-02-21T09:34:38;7.50;99.90
20457;DHT22;10387;51.102;6.848;2023-02-21T09:37:04;7.50;99.90
20457;DHT22;10387;51.102;6.848;2023-02-21T09:39:30;7.50;99.90
20457;DHT22;10387;51.102;6.848;2023-02-21T09:41:56;7.60;99.90
20457;DHT22;10387;51.102;6.848;2023-02-21T09:44:27;7.60;99.90
20457;DHT22;10387;51.102;6.848;2023-02-21T09:46:59;7.60;99.90
20457;DHT22;10387;51.102;6.848;2023-02-21T09:49:31;7.60;99.90
20457;DHT22;10387;51.102;6.848;2023-02-21T09:51:58;7.50;99.90
20457;DHT22;10387;51.102;6.848;2023-02-21T09:54:34;7.60;99.90
20457;DHT22;10387;51.102;6.848;2023-02-21T09:57:03;7.60;99.90
20457;DHT22;10387;51.102;6.848;2023-02-21T09:59:29;7.60;99.90
20457;DHT22;10387;51.102;6.848;2023-02-21T10:02:02;7.60;99.90
20457;DHT22;10387;51.102;6.848;2023-02-21T10:07:55;7.70;99.90
20457;DHT22;10387;51.102;6.848;2023-02-21T10:10:34;7.70;99.90
20457;DHT22;10387;51.102;6.848;2023-02-21T10:15:53;7.70;99.90
20457;DHT22;10387;51.102;6.848;2023-02-21T10:21:41;7.80;99.90
20457;DHT22;10387;51.102;6.848;2023-02-21T10:24:28;7.80;99.90
20457;DHT22;10387;51.102;6.848;2023-02-21T10:26:58;7.80;99.90
20457;DHT22;10387;51.102;6.848;2023-02-21T10:30:05;7.90;99.90
20457;DHT22;10387;51.102;6.848;2023-02-21T10:32:35;7.90;99.90
20457;DHT22;10387;51.102;6.848;2023-02-21T10:35:02;7.90;99.90
20457;DHT22;10387;51.102;6.848;2023-02-21T10:37:45;7.90;99.90
20457;DHT22;10387;51.102;6.848;2023-02-21T10:43:18;7.90;99.90
20457;DHT22;10387;51.102;6.848;2023-02-21T10:46:08;7.90;99.90
20457;DHT22;10387;51.102;6.848;2023-02-21T10:48:38;8.00;99.90
20457;DHT22;10387;51.102;6.848;2023-02-21T10:51:16;8.10;99.90
20457;DHT22;10387;51.102;6.848;2023-02-21T10:53:46;8.20;99.90
20457;DHT22;10387;51.102;6.848;2023-02-21T10:59:01;8.30;99.90
20457;DHT22;10387;51.102;6.848;2023-02-21T11:01:37;8.30;99.90
20457;DHT22;10387;51.102;6.848;2023-02-21T11:06:56;8.40;99.90
20457;DHT22;10387;51.102;6.848;2023-02-21T11:14:40;8.60;99.90
20457;DHT22;10387;51.102;6.848;2023-02-21T11:17:21;8.60;99.90
20457;DHT22;10387;51.102;6.848;2023-02-21T11:20:22;8.60;99.90
20457;DHT22;10387;51.102;6.848;2023-02-21T11:22:49;8.70;99.90
20457;DHT22;10387;51.102;6.848;2023-02-21T11:25:32;8.70;99.90
20457;DHT22;10387;51.102;6.848;2023-02-21T11:30:38;8.60;99.90
20457;DHT22;10387;51.102;6.848;2023-02-21T11:33:05;8.60;99.90
20457;DHT22;10387;51.102;6.848;2023-02-21T11:35:50;8.60;99.90
20457;DHT22;10387;51.102;6.848;2023-02-21T11:41:50;8.70;99.90
20457;DHT22;10387;51.102;6.848;2023-02-21T11:44:30;8.70;99.90
20457;DHT22;10387;51.102;6.848;2023-02-21T11:47:20;8.70;99.90
20457;DHT22;10387;51.102;6.848;2023-02-21T11:50:20;8.70;99.90
20457;DHT22;10387;51.102;6.848;2023-02-21T11:53:05;8.70;99.90
20457;DHT22;10387;51.102;6.848;2023-02-21T11:55:31;8.80;99.90
20457;DHT22;10387;51.102;6.848;2023-02-21T12:01:02;8.90;99.90
20457;DHT22;10387;51.102;6.848;2023-02-21T12:09:37;8.80;99.90
20457;DHT22;10387;51.102;6.848;2023-02-21T12:12:44;8.80;99.90
20457;DHT22;10387;51.102;6.848;2023-02-21T12:15:20;8.80;99.90
20457;DHT22;10387;51.102;6.848;2023-02-21T12:18:04;8.80;99.90
20457;DHT22;10387;51.102;6.848;2023-02-21T12:20:44;8.80;99.90
20457;DHT22;10387;51.102;6.848;2023-02-21T12:23:27;8.90;99.90
20457;DHT22;10387;51.102;6.848;2023-02-21T12:26:08;8.90;99.90
20457;DHT22;10387;51.102;6.848;2023-02-21T12:32:04;9.00;99.90
20457;DHT22;10387;51.102;6.848;2023-02-21T12:39:55;9.00;99.90
20457;DHT22;10387;51.102;6.848;2023-02-21T12:45:00;9.20;99.90
20457;DHT22;10387;51.102;6.848;2023-02-21T12:47:35;9.40;99.90
20457;DHT22;10387;51.102;6.848;2023-02-21T12:50:23;9.30;99.90
20457;DHT22;10387;51.102;6.848;2023-02-21T12:53:20;9.30;99.90
20457;DHT22;10387;51.102;6.848;2023-02-21T12:59:23;9.20;99.90
20457;DHT22;10387;51.102;6.848;2023-02-21T13:01:57;9.20;99.90
20457;DHT22;10387;51.102;6.848;2023-02-21T13:04:58;9.30;99.90
20457;DHT22;10387;51.102;6.848;2023-02-21T13:10:38;9.50;99.90
20457;DHT22;10387;51.102;6.848;2023-02-21T13:13:12;9.60;99.90
20457;DHT22;10387;51.102;6.848;2023-02-21T13:15:41;9.70;99.90
20457;DHT22;10387;51.102;6.848;2023-02-21T13:18:15;9.70;99.90
20457;DHT22;10387;51.102;6.848;2023-02-21T13:20:45;9.70;99.90
20457;DHT22;10387;51.102;6.848;2023-02-21T13:29:30;9.60;99.90
20457;DHT22;10387;51.102;6.848;2023-02-21T13:32:09;9.70;99.90
20457;DHT22;10387;51.102;6.848;2023-02-21T13:34:40;9.70;99.90
20457;DHT22;10387;51.102;6.848;2023-02-21T13:37:17;9.70;99.90
20457;DHT22;10387;51.102;6.848;2023-02-21T13:39:48;9.80;99.90
20457;DHT22;10387;51.102;6.848;2023-02-21T13:42:21;9.90;99.90
20457;DHT22;10387;51.102;6.848;2023-02-21T13:44:50;10.00;99.90
20457;DHT22;10387;51.102;6.848;2023-02-21T13:47:20;9.90;99.90
20457;DHT22;10387;51.102;6.848;2023-02-21T13:58:35;9.70;99.90
20457;DHT22;10387;51.102;6.848;2023-02-21T14:08:31;9.80;99.90
20457;DHT22;10387;51.102;6.848;2023-02-21T14:16:33;9.70;99.90
20457;DHT22;10387;51.102;6.848;2023-02-21T14:19:08;9.70;99.90
20457;DHT22;10387;51.102;6.848;2023-02-21T14:21:46;9.80;99.90
20457;DHT22;10387;51.102;6.848;2023-02-21T14:24:16;9.80;99.90
20457;DHT22;10387;51.102;6.848;2023-02-21T14:32:43;10.10;99.90
20457;DHT22;10387;51.102;6.848;2023-02-21T14:37:44;10.20;99.90
20457;DHT22;10387;51.102;6.848;2023-02-21T14:43:23;10.10;99.90
20457;DHT22;10387;51.102;6.848;2023-02-21T14:46:30;10.10;99.90
20457;DHT22;10387;51.102;6.848;2023-02-21T14:52:17;10.10;99.90
20457;DHT22;10387;51.102;6.848;2023-02-21T14:58:03;9.90;99.90
20457;DHT22;10387;51.102;6.848;2023-02-21T15:03:18;9.80;99.90
20457;DHT22;10387;51.102;6.848;2023-02-21T15:06:11;9.90;99.90
20457;DHT22;10387;51.102;6.848;2023-02-21T15:08:45;10.00;99.90
20457;DHT22;10387;51.102;6.848;2023-02-21T15:11:32;10.10;99.90
20457;DHT22;10387;51.102;6.848;2023-02-21T15:14:22;10.00;99.90
20457;DHT22;10387;51.102;6.848;2023-02-21T15:17:09;10.00;99.90
20457;DHT22;10387;51.102;6.848;2023-02-21T15:19:36;10.00;99.90
20457;DHT22;10387;51.102;6.848;2023-02-21T15:22:24;10.00;99.90
20457;DHT22;10387;51.102;6.848;2023-02-21T15:25:12;9.90;99.90
20457;DHT22;10387;51.102;6.848;2023-02-21T15:30:16;10.10;99.90
20457;DHT22;10387;51.102;6.848;2023-02-21T15:32:43;10.10;99.90
20457;DHT22;10387;51.102;6.848;2023-02-21T15:35:17;10.10;99.90
20457;DHT22;10387;51.102;6.848;2023-02-21T15:37:46;10.10;99.90
20457;DHT22;10387;51.102;6.848;2023-02-21T15:40:20;10.20;99.90
20457;DHT22;10387;51.102;6.848;2023-02-21T15:42:48;10.30;99.90
20457;DHT22;10387;51.102;6.848;2023-02-21T15:45:34;10.20;99.90
20457;DHT22;10387;51.102;6.848;2023-02-21T15:48:03;10.20;99.90
20457;DHT22;10387;51.102;6.848;2023-02-21T15:55:36;10.30;99.90
20457;DHT22;10387;51.102;6.848;2023-02-21T15:58:16;10.20;99.90
20457;DHT22;10387;51.102;6.848;2023-02-21T16:00:44;10.00;99.90
20457;DHT22;10387;51.102;6.848;2023-02-21T16:06:29;9.80;99.90
20457;DHT22;10387;51.102;6.848;2023-02-21T16:09:17;9.80;99.90
20457;DHT22;10387;51.102;6.848;2023-02-21T16:11:53;9.70;99.90
20457;DHT22;10387;51.102;6.848;2023-02-21T16:14:34;9.60;99.90
20457;DHT22;10387;51.102;6.848;2023-02-21T16:19:41;9.40;99.90
20457;DHT22;10387;51.102;6.848;2023-02-21T16:22:20;9.40;99.90
20457;DHT22;10387;51.102;6.848;2023-02-21T16:24:47;9.30;99.90
20457;DHT22;10387;51.102;6.848;2023-02-21T16:27:15;9.30;99.90
20457;DHT22;10387;51.102;6.848;2023-02-21T16:29:41;9.30;99.90
20457;DHT22;10387;51.102;6.848;2023-02-21T16:32:19;9.20;99.90
20457;DHT22;10387;51.102;6.848;2023-02-21T16:34:45;9.10;99.90
20457;DHT22;10387;51.102;6.848;2023-02-21T16:37:12;9.00;99.90
20457;DHT22;10387;51.102;6.848;2023-02-21T16:39:39;8.90;99.90
20457;DHT22;10387;51.102;6.848;2023-02-21T16:42:06;8.90;99.90
20457;DHT22;10387;51.102;6.848;2023-02-21T16:44:32;8.90;99.90
20457;DHT22;10387;51.102;6.848;2023-02-21T16:46:58;8.80;99.90
20457;DHT22;10387;51.102;6.848;2023-02-21T16:49:24;8.70;99.90
20457;DHT22;10387;51.102;6.848;2023-02-21T16:51:51;8.70;99.90
20457;DHT22;10387;51.102;6.848;2023-02-21T16:54:17;8.60;99.90
20457;DHT22;10387;51.102;6.848;2023-02-21T16:56:45;8.60;99.90
20457;DHT22;10387;51.102;6.848;2023-02-21T16:59:15;8.50;99.90
20457;DHT22;10387;51.102;6.848;2023-02-21T17:01:41;8.50;99.90
20457;DHT22;10387;51.102;6.848;2023-02-21T17:04:19;8.40;99.90
20457;DHT22;10387;51.102;6.848;2023-02-21T17:06:50;8.30;99.90
20457;DHT22;10387;51.102;6.848;2023-02-21T17:09:19;8.30;99.90
20457;DHT22;10387;51.102;6.848;2023-02-21T17:11:46;8.20;99.90
20457;DHT22;10387;51.102;6.848;2023-02-21T17:14:12;8.20;99.90
20457;DHT22;10387;51.102;6.848;2023-02-21T17:16:37;8.10;99.90
20457;DHT22;10387;51.102;6.848;2023-02-21T17:19:04;8.00;99.90
20457;DHT22;10387;51.102;6.848;2023-02-21T17:21:30;8.00;99.90
20457;DHT22;10387;51.102;6.848;2023-02-21T17:23:56;7.90;99.90
20457;DHT22;10387;51.102;6.848;2023-02-21T17:26:42;7.90;99.90
20457;DHT22;10387;51.102;6.848;2023-02-21T17:37:34;7.90;99.90
20457;DHT22;10387;51.102;6.848;2023-02-21T17:41:09;8.00;99.90
20457;DHT22;10387;51.102;6.848;2023-02-21T17:43:35;7.90;99.90
20457;DHT22;10387;51.102;6.848;2023-02-21T17:46:24;8.00;99.90
20457;DHT22;10387;51.102;6.848;2023-02-21T17:52:02;7.90;99.90
20457;DHT22;10387;51.102;6.848;2023-02-21T17:54:59;8.00;99.90
20457;DHT22;10387;51.102;6.848;2023-02-21T17:57:27;7.90;99.90
20457;DHT22;10387;51.102;6.848;2023-02-21T17:59:54;7.90;99.90
20457;DHT22;10387;51.102;6.848;2023-02-21T18:02:29;7.90;99.90
20457;DHT22;10387;51.102;6.848;2023-02-21T18:04:55;7.90;99.90
20457;DHT22;10387;51.102;6.848;2023-02-21T18:07:28;7.90;99.90
20457;DHT22;10387;51.102;6.848;2023-02-21T18:10:04;7.90;99.90
20457;DHT22;10387;51.102;6.848;2023-02-21T18:12:30;7.90;99.90
20457;DHT22;10387;51.102;6.848;2023-02-21T18:14:58;7.90;99.90
20457;DHT22;10387;51.102;6.848;2023-02-21T18:17:24;7.90;99.90
20457;DHT22;10387;51.102;6.848;2023-02-21T18:19:50;8.00;99.90
20457;DHT22;10387;51.102;6.848;2023-02-21T18:22:17;8.00;99.90
20457;DHT22;10387;51.102;6.848;2023-02-21T18:24:45;8.00;99.90
20457;DHT22;10387;51.102;6.848;2023-02-21T18:27:11;8.00;99.90
20457;DHT22;10387;51.102;6.848;2023-02-21T18:29:39;8.00;99.90
20457;DHT22;10387;51.102;6.848;2023-02-21T18:32:05;8.00;99.90
20457;DHT22;10387;51.102;6.848;2023-02-21T18:34:31;8.00;99.90
20457;DHT22;10387;51.102;6.848;2023-02-21T18:36:57;8.00;99.90
20457;DHT22;10387;51.102;6.848;2023-02-21T18:39:23;8.00;99.90
20457;DHT22;10387;51.102;6.848;2023-02-21T18:41:49;8.00;99.90
20457;DHT22;10387;51.102;6.848;2023-02-21T18:44:15;8.10;99.90
20457;DHT22;10387;51.102;6.848;2023-02-21T18:46:48;8.10;99.90
20457;DHT22;10387;51.102;6.848;2023-02-21T18:49:14;8.10;99.90
20457;DHT22;10387;51.102;6.848;2023-02-21T18:51:41;8.10;99.90
20457;DHT22;10387;51.102;6.848;2023-02-21T18:54:07;8.00;99.90
20457;DHT22;10387;51.102;6.848;2023-02-21T18:56:33;8.00;99.90